sensor_id;sensor_type;location;lat;lon;timestamp;P1;durP1;ratioP1;P2;durP2;ratioP2
19235;SDS011;9752;54.270;12.470;2023-04-16T00:03:53;48.43;;;28.90;;
19235;SDS011;9752;54.270;12.470;2023-04-16T00:08:56;47.43;;;31.23;;
19235;SDS011;9752;54.270;12.470;2023-04-16T00:13:58;49.40;;;27.63;;
19235;SDS011;9752;54.270;12.470;2023-04-16T00:18:59;48.43;;;30.10;;
19235;SDS011;9752;54.270;12.470;2023-04-16T00:24:02;63.37;;;32.50;;
19235;SDS011;9752;54.270;12.470;2023-04-16T00:29:05;54.13;;;30.33;;
19235;SDS011;9752;54.270;12.470;2023-04-16T00:34:07;53.10;;;31.90;;
19235;SDS011;9752;54.270;12.470;2023-04-16T00:39:10;56.17;;;30.27;;
19235;SDS011;9752;54.270;12.470;2023-04-16T00:44:12;58.93;;;33.53;;
19235;SDS011;9752;54.270;12.470;2023-04-16T00:49:14;58.80;;;31.63;;
19235;SDS011;9752;54.270;12.470;2023-04-16T00:54:17;55.90;;;33.27;;
19235;SDS011;9752;54.270;12.470;2023-04-16T00:59:19;62.40;;;35.77;;
19235;SDS011;9752;54.270;12.470;2023-04-16T01:04:22;58.30;;;34.30;;
19235;SDS011;9752;54.270;12.470;2023-04-16T01:09:25;62.07;;;34.87;;
19235;SDS011;9752;54.270;12.470;2023-04-16T01:14:27;73.27;;;35.93;;
19235;SDS011;9752;54.270;12.470;2023-04-16T01:19:28;69.73;;;35.10;;
19235;SDS011;9752;54.270;12.470;2023-04-16T01:24:32;67.70;;;36.73;;
19235;SDS011;9752;54.270;12.470;2023-04-16T01:29:34;64.83;;;34.77;;
19235;SDS011;9752;54.270;12.470;2023-04-16T01:34:36;59.87;;;35.53;;
19235;SDS011;9752;54.270;12.470;2023-04-16T01:39:39;64.23;;;34.37;;
19235;SDS011;9752;54.270;12.470;2023-04-16T01:44:41;71.40;;;37.80;;
19235;SDS011;9752;54.270;12.470;2023-04-16T01:49:43;66.17;;;35.43;;
19235;SDS011;9752;54.270;12.470;2023-04-16T01:54:48;69.87;;;37.40;;
19235;SDS011;9752;54.270;12.470;2023-04-16T01:59:50;69.60;;;36.37;;
19235;SDS011;9752;54.270;12.470;2023-04-16T02:04:52;68.43;;;35.80;;
19235;SDS011;9752;54.270;12.470;2023-04-16T02:09:55;70.67;;;36.60;;
19235;SDS011;9752;54.270;12.470;2023-04-16T02:14:57;67.53;;;34.73;;
19235;SDS011;9752;54.270;12.470;2023-04-16T02:20:01;60.97;;;34.83;;
19235;SDS011;9752;54.270;12.470;2023-04-16T02:25:07;60.77;;;31.20;;
19235;SDS011;9752;54.270;12.470;2023-04-16T02:30:10;69.17;;;38.10;;
19235;SDS011;9752;54.270;12.470;2023-04-16T02:35:13;62.53;;;33.97;;
19235;SDS011;9752;54.270;12.470;2023-04-16T02:40:16;69.73;;;35.13;;
19235;SDS011;9752;54.270;12.470;2023-04-16T02:45:18;57.80;;;32.87;;
19235;SDS011;9752;54.270;12.470;2023-04-16T02:50:20;60.93;;;35.13;;
19235;SDS011;9752;54.270;12.470;2023-04-16T02:55:23;61.67;;;34.40;;
19235;SDS011;9752;54.270;12.470;2023-04-16T03:00:25;57.50;;;33.97;;
19235;SDS011;9752;54.270;12.470;2023-04-16T03:05:26;64.27;;;34.90;;
19235;SDS011;9752;54.270;12.470;2023-04-16T03:10:29;59.37;;;34.13;;
19235;SDS011;9752;54.270;12.470;2023-04-16T03:15:31;60.97;;;34.57;;
19235;SDS011;9752;54.270;12.470;2023-04-16T03:20:33;62.57;;;35.23;;
19235;SDS011;9752;54.270;12.470;2023-04-16T03:25:36;53.67;;;34.10;;
19235;SDS011;9752;54.270;12.470;2023-04-16T03:30:41;60.33;;;34.93;;
19235;SDS011;9752;54.270;12.470;2023-04-16T03:35:43;57.93;;;37.57;;
19235;SDS011;9752;54.270;12.470;2023-04-16T03:40:47;63.63;;;37.10;;
19235;SDS011;9752;54.270;12.470;2023-04-16T03:45:49;75.07;;;39.73;;
19235;SDS011;9752;54.270;12.470;2023-04-16T03:50:54;66.50;;;38.17;;
19235;SDS011;9752;54.270;12.470;2023-04-16T03:55:57;71.53;;;41.33;;
19235;SDS011;9752;54.270;12.470;2023-04-16T04:01:00;67.10;;;38.80;;
19235;SDS011;9752;54.270;12.470;2023-04-16T04:06:05;70.67;;;40.33;;
19235;SDS011;9752;54.270;12.470;2023-04-16T04:11:09;69.90;;;41.20;;
19235;SDS011;9752;54.270;12.470;2023-04-16T04:16:12;81.07;;;42.10;;
19235;SDS011;9752;54.270;12.470;2023-04-16T04:21:14;76.23;;;39.90;;
19235;SDS011;9752;54.270;12.470;2023-04-16T04:26:17;80.90;;;41.50;;
19235;SDS011;9752;54.270;12.470;2023-04-16T04:31:19;66.97;;;38.27;;
19235;SDS011;9752;54.270;12.470;2023-04-16T04:36:21;67.40;;;39.33;;
19235;SDS011;9752;54.270;12.470;2023-04-16T04:41:25;70.03;;;38.73;;
19235;SDS011;9752;54.270;12.470;2023-04-16T04:46:27;70.73;;;39.10;;
19235;SDS011;9752;54.270;12.470;2023-04-16T04:51:28;68.40;;;38.17;;
19235;SDS011;9752;54.270;12.470;2023-04-16T04:56:32;76.63;;;39.07;;
19235;SDS011;9752;54.270;12.470;2023-04-16T05:01:33;67.70;;;38.30;;
19235;SDS011;9752;54.270;12.470;2023-04-16T05:06:35;65.90;;;37.53;;
19235;SDS011;9752;54.270;12.470;2023-04-16T05:11:39;67.40;;;36.73;;
19235;SDS011;9752;54.270;12.470;2023-04-16T05:16:42;76.07;;;37.17;;
19235;SDS011;9752;54.270;12.470;2023-04-16T05:21:43;66.40;;;34.23;;
19235;SDS011;9752;54.270;12.470;2023-04-16T05:26:47;60.90;;;34.53;;
19235;SDS011;9752;54.270;12.470;2023-04-16T05:31:48;51.73;;;31.97;;
19235;SDS011;9752;54.270;12.470;2023-04-16T05:36:50;49.83;;;32.23;;
19235;SDS011;9752;54.270;12.470;2023-04-16T05:41:53;50.23;;;29.47;;
19235;SDS011;9752;54.270;12.470;2023-04-16T05:46:55;54.47;;;32.73;;
19235;SDS011;9752;54.270;12.470;2023-04-16T05:51:57;45.53;;;26.77;;
19235;SDS011;9752;54.270;12.470;2023-04-16T05:57:00;44.20;;;28.57;;
19235;SDS011;9752;54.270;12.470;2023-04-16T06:02:01;51.67;;;29.93;;
19235;SDS011;9752;54.270;12.470;2023-04-16T06:07:03;44.07;;;27.03;;
19235;SDS011;9752;54.270;12.470;2023-04-16T06:12:06;46.80;;;27.53;;
19235;SDS011;9752;54.270;12.470;2023-04-16T06:17:08;45.63;;;28.30;;
19235;SDS011;9752;54.270;12.470;2023-04-16T06:22:10;47.87;;;28.37;;
19235;SDS011;9752;54.270;12.470;2023-04-16T06:27:13;45.97;;;26.50;;
19235;SDS011;9752;54.270;12.470;2023-04-16T06:32:15;42.57;;;26.87;;
19235;SDS011;9752;54.270;12.470;2023-04-16T06:37:17;41.93;;;24.87;;
19235;SDS011;9752;54.270;12.470;2023-04-16T06:42:20;44.97;;;25.50;;
19235;SDS011;9752;54.270;12.470;2023-04-16T06:47:22;46.50;;;24.87;;
19235;SDS011;9752;54.270;12.470;2023-04-16T06:52:24;37.63;;;24.47;;
19235;SDS011;9752;54.270;12.470;2023-04-16T06:57:27;43.37;;;25.10;;
19235;SDS011;9752;54.270;12.470;2023-04-16T07:02:29;45.30;;;25.70;;
19235;SDS011;9752;54.270;12.470;2023-04-16T07:07:31;34.90;;;21.77;;
19235;SDS011;9752;54.270;12.470;2023-04-16T07:12:34;34.57;;;23.33;;
19235;SDS011;9752;54.270;12.470;2023-04-16T07:17:36;42.83;;;22.77;;
19235;SDS011;9752;54.270;12.470;2023-04-16T07:22:37;38.70;;;23.50;;
19235;SDS011;9752;54.270;12.470;2023-04-16T07:27:40;33.03;;;21.03;;
19235;SDS011;9752;54.270;12.470;2023-04-16T07:32:42;34.80;;;21.03;;
19235;SDS011;9752;54.270;12.470;2023-04-16T07:37:44;33.50;;;20.60;;
19235;SDS011;9752;54.270;12.470;2023-04-16T07:42:47;38.00;;;21.07;;
19235;SDS011;9752;54.270;12.470;2023-04-16T07:47:49;31.63;;;20.40;;
19235;SDS011;9752;54.270;12.470;2023-04-16T07:52:51;36.07;;;19.63;;
19235;SDS011;9752;54.270;12.470;2023-04-16T07:57:54;33.63;;;19.13;;
19235;SDS011;9752;54.270;12.470;2023-04-16T08:02:55;31.63;;;19.53;;
19235;SDS011;9752;54.270;12.470;2023-04-16T08:07:57;32.27;;;20.53;;
19235;SDS011;9752;54.270;12.470;2023-04-16T08:13:00;30.50;;;19.93;;
19235;SDS011;9752;54.270;12.470;2023-04-16T08:18:02;31.20;;;19.30;;
19235;SDS011;9752;54.270;12.470;2023-04-16T08:23:05;26.67;;;19.63;;
19235;SDS011;9752;54.270;12.470;2023-04-16T08:28:08;29.60;;;19.33;;
19235;SDS011;9752;54.270;12.470;2023-04-16T08:33:09;28.07;;;19.37;;
19235;SDS011;9752;54.270;12.470;2023-04-16T08:38:13;29.60;;;20.80;;
19235;SDS011;9752;54.270;12.470;2023-04-16T08:43:16;26.17;;;19.37;;
19235;SDS011;9752;54.270;12.470;2023-04-16T08:48:19;28.93;;;20.30;;
19235;SDS011;9752;54.270;12.470;2023-04-16T08:53:24;21.97;;;18.73;;
19235;SDS011;9752;54.270;12.470;2023-04-16T08:58:34;29.53;;;18.63;;
19235;SDS011;9752;54.270;12.470;2023-04-16T09:03:37;22.33;;;17.23;;
19235;SDS011;9752;54.270;12.470;2023-04-16T09:08:40;24.63;;;17.57;;
19235;SDS011;9752;54.270;12.470;2023-04-16T09:13:45;24.80;;;17.37;;
19235;SDS011;9752;54.270;12.470;2023-04-16T09:18:47;25.17;;;18.67;;
19235;SDS011;9752;54.270;12.470;2023-04-16T09:23:49;25.03;;;18.03;;
19235;SDS011;9752;54.270;12.470;2023-04-16T09:28:54;29.03;;;18.57;;
19235;SDS011;9752;54.270;12.470;2023-04-16T09:34:00;23.97;;;18.00;;
19235;SDS011;9752;54.270;12.470;2023-04-16T09:39:02;22.97;;;17.80;;
19235;SDS011;9752;54.270;12.470;2023-04-16T09:44:05;26.07;;;19.40;;
19235;SDS011;9752;54.270;12.470;2023-04-16T09:49:07;24.90;;;18.40;;
19235;SDS011;9752;54.270;12.470;2023-04-16T09:54:09;24.77;;;19.00;;
19235;SDS011;9752;54.270;12.470;2023-04-16T09:59:17;23.00;;;18.90;;
19235;SDS011;9752;54.270;12.470;2023-04-16T10:04:19;23.47;;;19.13;;
19235;SDS011;9752;54.270;12.470;2023-04-16T10:09:21;20.33;;;17.27;;
19235;SDS011;9752;54.270;12.470;2023-04-16T10:14:24;24.27;;;18.97;;
19235;SDS011;9752;54.270;12.470;2023-04-16T10:19:26;24.30;;;18.70;;
19235;SDS011;9752;54.270;12.470;2023-04-16T10:24:28;22.97;;;19.70;;
19235;SDS011;9752;54.270;12.470;2023-04-16T10:29:32;23.93;;;18.60;;
19235;SDS011;9752;54.270;12.470;2023-04-16T10:34:35;20.90;;;18.67;;
19235;SDS011;9752;54.270;12.470;2023-04-16T10:39:37;24.27;;;20.80;;
19235;SDS011;9752;54.270;12.470;2023-04-16T10:44:40;23.37;;;18.37;;
19235;SDS011;9752;54.270;12.470;2023-04-16T10:49:42;23.87;;;18.30;;
19235;SDS011;9752;54.270;12.470;2023-04-16T10:54:44;25.03;;;19.10;;
19235;SDS011;9752;54.270;12.470;2023-04-16T10:59:48;24.00;;;19.53;;
19235;SDS011;9752;54.270;12.470;2023-04-16T11:04:50;23.47;;;19.33;;
19235;SDS011;9752;54.270;12.470;2023-04-16T11:09:53;20.67;;;18.57;;
19235;SDS011;9752;54.270;12.470;2023-04-16T11:14:58;22.83;;;18.37;;
19235;SDS011;9752;54.270;12.470;2023-04-16T11:20:02;20.37;;;18.23;;
19235;SDS011;9752;54.270;12.470;2023-04-16T11:25:04;27.00;;;18.23;;
19235;SDS011;9752;54.270;12.470;2023-04-16T11:30:08;22.33;;;18.20;;
19235;SDS011;9752;54.270;12.470;2023-04-16T11:35:12;26.67;;;19.70;;
19235;SDS011;9752;54.270;12.470;2023-04-16T11:40:14;24.37;;;19.10;;
19235;SDS011;9752;54.270;12.470;2023-04-16T11:45:17;24.03;;;19.47;;
19235;SDS011;9752;54.270;12.470;2023-04-16T11:50:20;27.80;;;20.37;;
19235;SDS011;9752;54.270;12.470;2023-04-16T11:55:22;29.40;;;22.47;;
19235;SDS011;9752;54.270;12.470;2023-04-16T12:00:26;27.20;;;20.90;;
19235;SDS011;9752;54.270;12.470;2023-04-16T12:05:35;33.77;;;22.70;;
19235;SDS011;9752;54.270;12.470;2023-04-16T12:10:51;25.03;;;21.27;;
19235;SDS011;9752;54.270;12.470;2023-04-16T12:15:55;24.77;;;21.20;;
19235;SDS011;9752;54.270;12.470;2023-04-16T12:20:57;23.20;;;20.80;;
19235;SDS011;9752;54.270;12.470;2023-04-16T12:26:05;28.07;;;20.43;;
19235;SDS011;9752;54.270;12.470;2023-04-16T12:31:10;25.43;;;21.70;;
19235;SDS011;9752;54.270;12.470;2023-04-16T12:36:16;24.47;;;21.13;;
19235;SDS011;9752;54.270;12.470;2023-04-16T12:41:19;24.17;;;21.27;;
19235;SDS011;9752;54.270;12.470;2023-04-16T12:46:22;23.60;;;19.80;;
19235;SDS011;9752;54.270;12.470;2023-04-16T12:51:24;25.97;;;20.73;;
19235;SDS011;9752;54.270;12.470;2023-04-16T12:56:26;24.33;;;20.37;;
19235;SDS011;9752;54.270;12.470;2023-04-16T13:01:29;22.73;;;18.67;;
19235;SDS011;9752;54.270;12.470;2023-04-16T13:06:30;25.33;;;20.27;;
19235;SDS011;9752;54.270;12.470;2023-04-16T13:11:32;26.63;;;19.97;;
19235;SDS011;9752;54.270;12.470;2023-04-16T13:16:36;24.53;;;20.57;;
19235;SDS011;9752;54.270;12.470;2023-04-16T13:21:37;31.50;;;21.60;;
19235;SDS011;9752;54.270;12.470;2023-04-16T13:26:39;23.27;;;20.87;;
19235;SDS011;9752;54.270;12.470;2023-04-16T13:31:43;24.80;;;21.17;;
19235;SDS011;9752;54.270;12.470;2023-04-16T13:36:45;23.43;;;21.03;;
19235;SDS011;9752;54.270;12.470;2023-04-16T13:41:46;22.23;;;20.07;;
19235;SDS011;9752;54.270;12.470;2023-04-16T13:46:50;29.70;;;21.93;;
19235;SDS011;9752;54.270;12.470;2023-04-16T13:51:52;25.13;;;22.67;;
19235;SDS011;9752;54.270;12.470;2023-04-16T13:56:54;24.37;;;21.90;;
19235;SDS011;9752;54.270;12.470;2023-04-16T14:01:57;25.97;;;23.30;;
19235;SDS011;9752;54.270;12.470;2023-04-16T14:06:59;28.43;;;25.70;;
19235;SDS011;9752;54.270;12.470;2023-04-16T14:12:01;26.70;;;23.40;;
19235;SDS011;9752;54.270;12.470;2023-04-16T14:17:04;30.20;;;24.20;;
19235;SDS011;9752;54.270;12.470;2023-04-16T14:22:06;26.43;;;23.70;;
19235;SDS011;9752;54.270;12.470;2023-04-16T14:27:08;27.80;;;24.93;;
19235;SDS011;9752;54.270;12.470;2023-04-16T14:32:12;30.53;;;24.53;;
19235;SDS011;9752;54.270;12.470;2023-04-16T14:37:14;28.87;;;25.80;;
19235;SDS011;9752;54.270;12.470;2023-04-16T14:42:15;33.00;;;25.73;;
19235;SDS011;9752;54.270;12.470;2023-04-16T14:47:18;29.70;;;24.83;;
19235;SDS011;9752;54.270;12.470;2023-04-16T14:52:20;27.60;;;24.97;;
19235;SDS011;9752;54.270;12.470;2023-04-16T14:57:22;28.33;;;25.70;;
19235;SDS011;9752;54.270;12.470;2023-04-16T15:02:25;26.97;;;24.50;;
19235;SDS011;9752;54.270;12.470;2023-04-16T15:07:26;27.27;;;24.73;;
19235;SDS011;9752;54.270;12.470;2023-04-16T15:12:28;27.20;;;24.57;;
19235;SDS011;9752;54.270;12.470;2023-04-16T15:17:31;28.80;;;24.00;;
19235;SDS011;9752;54.270;12.470;2023-04-16T15:22:33;28.73;;;25.37;;
19235;SDS011;9752;54.270;12.470;2023-04-16T15:27:34;27.20;;;24.50;;
19235;SDS011;9752;54.270;12.470;2023-04-16T15:32:38;26.93;;;24.73;;
19235;SDS011;9752;54.270;12.470;2023-04-16T15:37:39;27.90;;;25.20;;
19235;SDS011;9752;54.270;12.470;2023-04-16T15:42:41;27.10;;;24.37;;
19235;SDS011;9752;54.270;12.470;2023-04-16T15:47:44;26.70;;;24.20;;
19235;SDS011;9752;54.270;12.470;2023-04-16T15:52:50;27.80;;;25.13;;
19235;SDS011;9752;54.270;12.470;2023-04-16T15:57:51;27.30;;;24.47;;
19235;SDS011;9752;54.270;12.470;2023-04-16T16:02:54;29.27;;;26.23;;
19235;SDS011;9752;54.270;12.470;2023-04-16T16:07:56;26.37;;;23.90;;
19235;SDS011;9752;54.270;12.470;2023-04-16T16:12:58;29.63;;;26.57;;
19235;SDS011;9752;54.270;12.470;2023-04-16T16:18:05;25.03;;;22.53;;
19235;SDS011;9752;54.270;12.470;2023-04-16T16:23:07;26.80;;;24.43;;
19235;SDS011;9752;54.270;12.470;2023-04-16T16:28:08;26.93;;;24.23;;
19235;SDS011;9752;54.270;12.470;2023-04-16T16:33:12;24.57;;;22.00;;
19235;SDS011;9752;54.270;12.470;2023-04-16T16:38:14;25.30;;;22.00;;
19235;SDS011;9752;54.270;12.470;2023-04-16T16:43:15;24.67;;;21.07;;
19235;SDS011;9752;54.270;12.470;2023-04-16T16:48:18;23.43;;;21.23;;
19235;SDS011;9752;54.270;12.470;2023-04-16T16:53:20;27.93;;;23.53;;
19235;SDS011;9752;54.270;12.470;2023-04-16T16:58:22;24.17;;;21.97;;
19235;SDS011;9752;54.270;12.470;2023-04-16T17:03:25;23.00;;;20.87;;
19235;SDS011;9752;54.270;12.470;2023-04-16T17:08:26;22.80;;;20.50;;
19235;SDS011;9752;54.270;12.470;2023-04-16T17:13:28;26.03;;;22.20;;
19235;SDS011;9752;54.270;12.470;2023-04-16T17:18:33;26.93;;;21.87;;
19235;SDS011;9752;54.270;12.470;2023-04-16T17:23:35;26.80;;;22.07;;
19235;SDS011;9752;54.270;12.470;2023-04-16T17:28:36;27.20;;;20.93;;
19235;SDS011;9752;54.270;12.470;2023-04-16T17:33:39;22.17;;;19.30;;
19235;SDS011;9752;54.270;12.470;2023-04-16T17:38:41;27.30;;;18.90;;
19235;SDS011;9752;54.270;12.470;2023-04-16T17:43:42;25.37;;;20.33;;
19235;SDS011;9752;54.270;12.470;2023-04-16T17:48:48;30.83;;;19.97;;
19235;SDS011;9752;54.270;12.470;2023-04-16T17:53:49;30.20;;;19.13;;
19235;SDS011;9752;54.270;12.470;2023-04-16T17:58:51;26.17;;;17.53;;
19235;SDS011;9752;54.270;12.470;2023-04-16T18:03:54;27.70;;;18.70;;
19235;SDS011;9752;54.270;12.470;2023-04-16T18:08:56;29.67;;;19.70;;
19235;SDS011;9752;54.270;12.470;2023-04-16T18:13:58;35.47;;;20.70;;
19235;SDS011;9752;54.270;12.470;2023-04-16T18:19:01;32.20;;;20.33;;
19235;SDS011;9752;54.270;12.470;2023-04-16T18:24:02;31.70;;;19.17;;
19235;SDS011;9752;54.270;12.470;2023-04-16T18:29:04;34.50;;;21.10;;
19235;SDS011;9752;54.270;12.470;2023-04-16T18:34:07;35.33;;;20.70;;
19235;SDS011;9752;54.270;12.470;2023-04-16T18:39:09;33.70;;;21.37;;
19235;SDS011;9752;54.270;12.470;2023-04-16T18:44:10;35.97;;;21.83;;
19235;SDS011;9752;54.270;12.470;2023-04-16T18:49:13;40.40;;;22.87;;
19235;SDS011;9752;54.270;12.470;2023-04-16T18:54:15;33.40;;;22.53;;
19235;SDS011;9752;54.270;12.470;2023-04-16T18:59:18;41.37;;;22.77;;
19235;SDS011;9752;54.270;12.470;2023-04-16T19:04:22;32.87;;;23.27;;
19235;SDS011;9752;54.270;12.470;2023-04-16T19:09:23;37.67;;;22.87;;
19235;SDS011;9752;54.270;12.470;2023-04-16T19:14:26;39.30;;;22.97;;
19235;SDS011;9752;54.270;12.470;2023-04-16T19:19:29;41.53;;;24.87;;
19235;SDS011;9752;54.270;12.470;2023-04-16T19:24:31;33.43;;;23.57;;
19235;SDS011;9752;54.270;12.470;2023-04-16T19:29:33;41.93;;;23.90;;
19235;SDS011;9752;54.270;12.470;2023-04-16T19:34:36;38.47;;;20.57;;
19235;SDS011;9752;54.270;12.470;2023-04-16T19:39:38;36.83;;;23.00;;
19235;SDS011;9752;54.270;12.470;2023-04-16T19:44:39;29.33;;;20.17;;
19235;SDS011;9752;54.270;12.470;2023-04-16T19:49:42;30.87;;;20.13;;
19235;SDS011;9752;54.270;12.470;2023-04-16T19:54:44;37.33;;;21.90;;
19235;SDS011;9752;54.270;12.470;2023-04-16T19:59:46;29.90;;;21.17;;
19235;SDS011;9752;54.270;12.470;2023-04-16T20:04:49;33.73;;;20.20;;
19235;SDS011;9752;54.270;12.470;2023-04-16T20:09:53;32.47;;;21.03;;
19235;SDS011;9752;54.270;12.470;2023-04-16T20:14:55;31.57;;;21.03;;
19235;SDS011;9752;54.270;12.470;2023-04-16T20:19:58;39.17;;;22.50;;
19235;SDS011;9752;54.270;12.470;2023-04-16T20:25:00;33.10;;;20.83;;
19235;SDS011;9752;54.270;12.470;2023-04-16T20:30:03;34.93;;;20.57;;
19235;SDS011;9752;54.270;12.470;2023-04-16T20:35:08;36.07;;;21.50;;
19235;SDS011;9752;54.270;12.470;2023-04-16T20:40:10;28.70;;;20.27;;
19235;SDS011;9752;54.270;12.470;2023-04-16T20:45:13;35.67;;;20.67;;
19235;SDS011;9752;54.270;12.470;2023-04-16T20:50:16;31.60;;;20.53;;
19235;SDS011;9752;54.270;12.470;2023-04-16T20:55:17;34.60;;;21.33;;
19235;SDS011;9752;54.270;12.470;2023-04-16T21:00:19;32.20;;;20.27;;
19235;SDS011;9752;54.270;12.470;2023-04-16T21:05:23;33.97;;;21.23;;
19235;SDS011;9752;54.270;12.470;2023-04-16T21:10:25;33.70;;;20.90;;
19235;SDS011;9752;54.270;12.470;2023-04-16T21:15:27;29.77;;;22.03;;
19235;SDS011;9752;54.270;12.470;2023-04-16T21:20:30;33.43;;;21.03;;
19235;SDS011;9752;54.270;12.470;2023-04-16T21:25:32;34.33;;;22.13;;
19235;SDS011;9752;54.270;12.470;2023-04-16T21:30:34;36.37;;;22.90;;
19235;SDS011;9752;54.270;12.470;2023-04-16T21:35:37;32.10;;;22.37;;
19235;SDS011;9752;54.270;12.470;2023-04-16T21:40:38;32.40;;;22.03;;
19235;SDS011;9752;54.270;12.470;2023-04-16T21:45:40;36.30;;;22.50;;
19235;SDS011;9752;54.270;12.470;2023-04-16T21:50:43;34.67;;;24.30;;
19235;SDS011;9752;54.270;12.470;2023-04-16T21:55:45;36.40;;;21.63;;
19235;SDS011;9752;54.270;12.470;2023-04-16T22:00:46;42.80;;;24.47;;
19235;SDS011;9752;54.270;12.470;2023-04-16T22:05:49;39.70;;;24.00;;
19235;SDS011;9752;54.270;12.470;2023-04-16T22:10:54;35.13;;;23.87;;
19235;SDS011;9752;54.270;12.470;2023-04-16T22:15:57;32.67;;;21.10;;
19235;SDS011;9752;54.270;12.470;2023-04-16T22:21:01;38.03;;;22.53;;
19235;SDS011;9752;54.270;12.470;2023-04-16T22:26:03;34.60;;;22.57;;
19235;SDS011;9752;54.270;12.470;2023-04-16T22:31:05;40.87;;;24.07;;
19235;SDS011;9752;54.270;12.470;2023-04-16T22:36:08;35.80;;;24.83;;
19235;SDS011;9752;54.270;12.470;2023-04-16T22:41:10;40.97;;;25.57;;
19235;SDS011;9752;54.270;12.470;2023-04-16T22:46:11;37.13;;;23.30;;
19235;SDS011;9752;54.270;12.470;2023-04-16T22:51:15;48.20;;;23.43;;
19235;SDS011;9752;54.270;12.470;2023-04-16T22:56:16;34.13;;;24.77;;
19235;SDS011;9752;54.270;12.470;2023-04-16T23:01:18;34.33;;;23.37;;
19235;SDS011;9752;54.270;12.470;2023-04-16T23:06:21;36.43;;;23.20;;
19235;SDS011;9752;54.270;12.470;2023-04-16T23:11:23;32.93;;;22.53;;
19235;SDS011;9752;54.270;12.470;2023-04-16T23:16:25;36.77;;;26.40;;
19235;SDS011;9752;54.270;12.470;2023-04-16T23:21:29;44.07;;;27.20;;
19235;SDS011;9752;54.270;12.470;2023-04-16T23:26:31;44.47;;;26.87;;
19235;SDS011;9752;54.270;12.470;2023-04-16T23:31:33;43.97;;;25.33;;
19235;SDS011;9752;54.270;12.470;2023-04-16T23:36:36;38.97;;;25.23;;
19235;SDS011;9752;54.270;12.470;2023-04-16T23:41:38;37.10;;;24.43;;
19235;SDS011;9752;54.270;12.470;2023-04-16T23:46:40;40.10;;;24.80;;
19235;SDS011;9752;54.270;12.470;2023-04-16T23:51:43;44.60;;;27.00;;
19235;SDS011;9752;54.270;12.470;2023-04-16T23:56:44;49.07;;;29.23;;
